createdAt,value
2018-03-23T00:00:36.394Z,76.40
2018-03-23T00:03:03.771Z,77.23
2018-03-23T00:05:30.669Z,78.08
2018-03-23T00:07:58.029Z,79.09
2018-03-23T00:10:24.673Z,79.89
2018-03-23T00:12:51.981Z,79.98
2018-03-23T00:15:19.342Z,79.65
2018-03-23T00:17:46.624Z,80.09
2018-03-23T00:20:13.072Z,81.98
2018-03-23T00:22:40.053Z,80.79
2018-03-23T00:25:06.692Z,81.06
2018-03-23T00:27:33.325Z,80.35
2018-03-23T00:29:59.808Z,79.46
2018-03-23T00:32:26.535Z,79.45
2018-03-23T00:34:53.749Z,78.42
2018-03-23T00:37:20.724Z,79.02
2018-03-23T00:39:48.138Z,77.97
2018-03-23T00:42:15.062Z,77.83
2018-03-23T00:44:42.703Z,77.60
2018-03-23T00:47:10.189Z,77.16
2018-03-23T00:49:37.448Z,76.76
2018-03-23T00:52:04.480Z,74.89
2018-03-23T00:54:31.254Z,74.80
2018-03-23T00:56:58.432Z,73.88
2018-03-23T00:59:26.376Z,74.07
2018-03-23T01:01:53.608Z,73.27
2018-03-23T01:04:20.372Z,73.21
2018-03-23T01:06:47.403Z,73.94
2018-03-23T01:09:14.798Z,74.72
2018-03-23T01:11:42.699Z,73.51
2018-03-23T01:14:09.314Z,73.77
2018-03-23T01:16:36.386Z,72.74
2018-03-23T01:19:03.372Z,72.10
2018-03-23T01:21:31.339Z,71.77
2018-03-23T01:23:57.969Z,72.52
2018-03-23T01:26:25.255Z,72.17
2018-03-23T01:28:52.972Z,71.11
2018-03-23T01:31:19.598Z,71.03
2018-03-23T01:33:46.103Z,70.65
2018-03-23T01:36:13.603Z,70.55
2018-03-23T01:38:40.593Z,70.08
2018-03-23T01:41:09.033Z,69.73
2018-03-23T01:43:35.690Z,69.31
2018-03-23T01:46:02.631Z,69.44
2018-03-23T01:48:29.820Z,68.86
2018-03-23T01:50:56.222Z,68.55
2018-03-23T01:53:43.636Z,68.37
2018-03-23T01:56:10.821Z,68.86
2018-03-23T01:58:37.909Z,68.81
2018-03-23T02:01:04.517Z,68.91
2018-03-23T02:03:31.689Z,68.64
2018-03-23T02:05:58.788Z,69.33
2018-03-23T02:08:25.444Z,69.25
2018-03-23T02:10:52.921Z,69.24
2018-03-23T02:13:20.574Z,68.95
2018-03-23T02:15:48.802Z,69.87
2018-03-23T02:18:16.989Z,70.65
2018-03-23T02:20:43.962Z,69.91
2018-03-23T02:23:11.573Z,69.61
2018-03-23T02:25:38.473Z,70.06
2018-03-23T02:28:05.347Z,69.71
2018-03-23T02:30:32.282Z,68.82
2018-03-23T02:33:00.532Z,68.75
2018-03-23T02:35:27.610Z,68.46
2018-03-23T02:37:54.663Z,68.11
2018-03-23T02:40:21.176Z,68.11
2018-03-23T02:42:48.781Z,68.15
2018-03-23T02:45:15.725Z,68.23
2018-03-23T02:47:42.725Z,68.17
2018-03-23T02:50:09.825Z,67.99
2018-03-23T02:52:37.044Z,67.89
2018-03-23T02:55:04.018Z,68.12
2018-03-23T02:57:30.658Z,68.14
2018-03-23T02:59:58.000Z,67.75
2018-03-23T03:02:27.663Z,68.36
2018-03-23T03:04:54.768Z,68.02
2018-03-23T03:07:22.431Z,68.80
2018-03-23T03:09:49.321Z,68.10
2018-03-23T03:12:16.349Z,68.17
2018-03-23T03:14:43.651Z,67.85
2018-03-23T03:17:10.478Z,67.82
2018-03-23T03:19:37.353Z,66.21
2018-03-23T03:22:03.957Z,65.14
2018-03-23T03:24:30.998Z,65.07
2018-03-23T03:26:59.102Z,65.41
2018-03-23T03:29:26.345Z,65.31
2018-03-23T03:31:53.790Z,65.77
2018-03-23T03:34:20.718Z,66.36
2018-03-23T03:36:47.460Z,66.20
2018-03-23T03:39:15.049Z,66.09
2018-03-23T03:41:42.007Z,66.05
2018-03-23T03:44:08.617Z,65.66
2018-03-23T03:46:35.367Z,65.38
2018-03-23T03:49:03.293Z,63.94
2018-03-23T03:51:30.302Z,63.05
2018-03-23T03:53:56.774Z,63.18
2018-03-23T03:56:23.183Z,63.29
2018-03-23T03:58:49.938Z,62.95
2018-03-23T04:01:17.502Z,63.40
2018-03-23T04:03:44.955Z,63.53
2018-03-23T04:06:12.545Z,63.17
2018-03-23T04:08:39.504Z,63.27
2018-03-23T04:11:06.586Z,63.05
2018-03-23T04:13:33.236Z,63.38
2018-03-23T04:16:01.828Z,62.74
2018-03-23T04:18:28.854Z,62.62
2018-03-23T04:20:56.174Z,62.77
2018-03-23T04:23:23.030Z,62.73
2018-03-23T04:25:52.741Z,62.79
2018-03-23T04:28:20.101Z,62.90
2018-03-23T04:30:48.620Z,63.86
2018-03-23T04:33:15.375Z,64.39
2018-03-23T04:35:42.433Z,63.59
2018-03-23T04:38:09.438Z,62.96
2018-03-23T04:40:36.364Z,63.45
2018-03-23T04:43:03.578Z,62.82
2018-03-23T04:45:30.098Z,63.05
2018-03-23T04:47:57.442Z,62.01
2018-03-23T04:50:24.352Z,62.05
2018-03-23T04:52:51.235Z,61.94
2018-03-23T04:55:18.766Z,62.46
2018-03-23T04:57:45.410Z,67.71
2018-03-23T05:00:15.320Z,61.26
2018-03-23T05:02:42.704Z,61.71
2018-03-23T05:05:09.756Z,60.78
2018-03-23T05:07:36.228Z,61.51
2018-03-23T05:10:03.313Z,61.54
2018-03-23T05:12:29.994Z,61.43
2018-03-23T05:14:56.788Z,61.03
2018-03-23T05:17:23.347Z,61.28
2018-03-23T05:19:49.919Z,61.07
2018-03-23T05:22:16.909Z,60.50
2018-03-23T05:24:43.996Z,60.90
2018-03-23T05:27:11.698Z,60.60
2018-03-23T05:29:38.325Z,60.64
2018-03-23T05:32:04.999Z,60.66
2018-03-23T05:34:32.343Z,61.29
2018-03-23T05:36:58.805Z,62.03
2018-03-23T05:39:25.667Z,60.83
2018-03-23T05:41:52.455Z,61.62
2018-03-23T05:44:19.411Z,60.90
2018-03-23T05:46:46.543Z,61.66
2018-03-23T05:49:13.747Z,61.64
2018-03-23T05:51:41.282Z,61.13
2018-03-23T05:54:08.042Z,61.18
2018-03-23T05:56:34.896Z,60.23
2018-03-23T05:59:01.423Z,59.84
2018-03-23T06:01:27.989Z,62.28
2018-03-23T06:03:54.482Z,61.68
2018-03-23T06:06:21.770Z,60.60
2018-03-23T06:08:48.806Z,60.91
2018-03-23T06:11:15.235Z,60.39
2018-03-23T06:13:42.260Z,60.52
2018-03-23T06:16:08.995Z,59.23
2018-03-23T06:18:35.442Z,59.34
2018-03-23T06:21:02.803Z,59.25
2018-03-23T06:23:29.685Z,60.84
2018-03-23T06:25:56.584Z,60.11
2018-03-23T06:28:23.523Z,60.13
2018-03-23T06:30:50.010Z,59.46
2018-03-23T06:33:16.735Z,59.48
2018-03-23T06:35:43.684Z,59.52
2018-03-23T06:38:10.204Z,58.91
2018-03-23T06:40:36.674Z,58.75
2018-03-23T06:43:03.512Z,59.28
2018-03-23T06:45:30.686Z,59.19
2018-03-23T06:47:57.284Z,59.52
2018-03-23T06:50:24.252Z,59.04
2018-03-23T06:52:51.601Z,58.53
2018-03-23T06:55:18.582Z,59.67
2018-03-23T06:57:45.101Z,58.44
2018-03-23T07:00:12.446Z,58.47
2018-03-23T07:02:40.883Z,58.10
2018-03-23T07:05:08.177Z,58.63
2018-03-23T07:07:34.931Z,58.63
2018-03-23T07:10:04.492Z,58.97
2018-03-23T07:12:31.909Z,58.07
2018-03-23T07:14:59.538Z,58.38
2018-03-23T07:17:26.762Z,57.20
2018-03-23T07:19:53.809Z,56.50
2018-03-23T07:22:20.582Z,55.22
2018-03-23T07:24:47.590Z,56.95
2018-03-23T07:27:14.291Z,56.54
2018-03-23T07:29:41.660Z,55.74
2018-03-23T07:32:08.564Z,56.09
2018-03-23T07:34:35.516Z,56.08
2018-03-23T07:37:02.303Z,56.18
2018-03-23T07:39:29.519Z,58.15
2018-03-23T07:41:57.677Z,58.13
2018-03-23T07:44:24.278Z,56.77
2018-03-23T07:46:50.937Z,56.88
2018-03-23T07:49:17.631Z,58.13
2018-03-23T07:51:44.677Z,57.59
2018-03-23T07:54:11.331Z,57.78
2018-03-23T07:56:38.348Z,58.64
2018-03-23T07:59:05.228Z,59.34
2018-03-23T08:01:31.735Z,58.54
2018-03-23T08:03:58.536Z,58.48
2018-03-23T08:06:25.378Z,57.43
2018-03-23T08:08:52.566Z,58.47
2018-03-23T08:11:19.384Z,58.21
2018-03-23T08:13:46.001Z,63.07
2018-03-23T08:16:12.902Z,59.19
2018-03-23T08:18:39.441Z,58.02
2018-03-23T08:21:05.987Z,57.58
2018-03-23T08:23:33.348Z,57.39
2018-03-23T08:26:00.259Z,56.88
2018-03-23T08:28:26.788Z,56.30
2018-03-23T08:30:53.609Z,56.32
2018-03-23T08:33:20.488Z,56.67
2018-03-23T08:35:47.529Z,57.84
2018-03-23T08:38:14.694Z,57.45
2018-03-23T08:40:41.988Z,58.25
2018-03-23T08:43:08.884Z,58.17
2018-03-23T08:45:35.874Z,57.05
2018-03-23T08:48:02.728Z,55.32
2018-03-23T08:50:29.525Z,58.61
2018-03-23T08:52:56.219Z,57.09
2018-03-23T08:55:29.989Z,55.49
2018-03-23T08:57:56.598Z,56.42
2018-03-23T09:00:23.342Z,56.48
2018-03-23T09:02:49.843Z,56.24
2018-03-23T09:05:16.664Z,57.88
2018-03-23T09:07:43.064Z,57.01
2018-03-23T09:10:09.590Z,56.54
2018-03-23T09:21:33.087Z,55.80
2018-03-23T09:23:59.653Z,54.67
2018-03-23T09:26:26.337Z,54.18
2018-03-23T09:28:53.464Z,55.07
2018-03-23T09:31:19.926Z,55.60
2018-03-23T09:33:46.595Z,55.70
2018-03-23T09:36:13.381Z,55.74
2018-03-23T09:38:40.007Z,55.75
2018-03-23T09:41:06.882Z,55.33
2018-03-23T09:43:33.520Z,54.77
2018-03-23T09:46:00.266Z,57.12
2018-03-23T09:48:27.159Z,57.03
2018-03-23T09:50:54.196Z,55.40
2018-03-23T09:53:21.058Z,55.63
2018-03-23T09:55:48.059Z,57.65
2018-03-23T09:58:15.206Z,57.33
2018-03-23T10:00:41.982Z,55.53
2018-03-23T10:03:09.098Z,55.54
2018-03-23T10:05:36.227Z,55.78
2018-03-23T10:08:02.861Z,54.87
2018-03-23T10:10:30.060Z,55.45
2018-03-23T10:12:57.083Z,55.10
2018-03-23T10:15:23.838Z,55.06
2018-03-23T10:17:51.198Z,54.85
2018-03-23T10:20:18.119Z,54.10
2018-03-23T10:22:44.543Z,57.26
2018-03-23T10:25:10.962Z,56.48
2018-03-23T10:27:37.337Z,56.23
2018-03-23T10:30:03.925Z,57.02
2018-03-23T10:32:30.886Z,55.57
2018-03-23T10:34:57.543Z,55.58
2018-03-23T10:37:24.680Z,55.83
2018-03-23T10:39:51.256Z,55.06
2018-03-23T10:42:17.882Z,58.69
2018-03-23T10:44:44.521Z,52.76
2018-03-23T10:47:11.337Z,54.25
2018-03-23T10:49:38.500Z,53.28
2018-03-23T10:52:05.912Z,52.14
2018-03-23T10:54:32.531Z,52.61
2018-03-23T10:56:59.012Z,54.13
2018-03-23T10:59:25.892Z,55.06
2018-03-23T11:01:58.709Z,54.91
2018-03-23T11:04:25.854Z,55.42
2018-03-23T11:06:52.549Z,54.93
2018-03-23T11:09:19.469Z,54.71
2018-03-23T11:11:45.853Z,54.30
2018-03-23T11:14:13.469Z,53.44
2018-03-23T11:16:40.464Z,53.50
2018-03-23T11:19:07.205Z,54.14
2018-03-23T11:21:33.767Z,54.93
2018-03-23T11:24:00.766Z,54.20
2018-03-23T11:26:27.298Z,55.22
2018-03-23T11:28:54.449Z,55.45
2018-03-23T11:31:21.425Z,54.76
2018-03-23T11:33:48.406Z,56.50
2018-03-23T11:36:15.184Z,55.04
2018-03-23T11:38:41.778Z,55.77
2018-03-23T11:41:08.924Z,55.27
2018-03-23T11:43:35.817Z,55.58
2018-03-23T11:46:02.748Z,56.07
2018-03-23T11:48:29.319Z,56.34
2018-03-23T11:50:55.962Z,57.04
2018-03-23T11:53:23.053Z,56.93
2018-03-23T11:55:49.690Z,55.95
2018-03-23T11:58:17.045Z,57.13
2018-03-23T12:00:43.956Z,57.20
2018-03-23T12:03:10.687Z,57.30
2018-03-23T12:05:37.539Z,56.07
2018-03-23T12:08:04.798Z,55.71
2018-03-23T12:10:31.569Z,54.85
2018-03-23T12:12:58.245Z,56.74
2018-03-23T12:15:25.881Z,56.24
2018-03-23T12:17:52.702Z,54.88
2018-03-23T12:20:19.772Z,54.76
2018-03-23T12:22:46.905Z,54.25
2018-03-23T12:25:13.700Z,54.88
2018-03-23T12:27:40.698Z,55.16
2018-03-23T12:30:07.759Z,54.79
2018-03-23T12:32:34.655Z,55.35
2018-03-23T12:35:01.230Z,55.60
2018-03-23T12:37:27.703Z,54.92
2018-03-23T12:39:54.675Z,55.91
2018-03-23T12:42:21.305Z,55.14
2018-03-23T12:44:47.738Z,55.89
2018-03-23T12:47:14.570Z,55.92
2018-03-23T12:49:41.470Z,55.16
2018-03-23T12:52:08.185Z,56.02
2018-03-23T12:54:34.890Z,55.15
2018-03-23T12:57:01.750Z,57.97
2018-03-23T12:59:28.479Z,56.87
2018-03-23T13:01:55.411Z,57.09
2018-03-23T13:04:22.022Z,55.59
2018-03-23T13:06:48.390Z,55.73
2018-03-23T13:09:16.021Z,55.37
2018-03-23T13:11:42.916Z,56.61
2018-03-23T13:14:10.049Z,55.61
2018-03-23T13:16:36.507Z,56.73
2018-03-23T13:19:03.057Z,56.38
2018-03-23T13:21:29.928Z,56.74
2018-03-23T13:23:56.661Z,56.25
2018-03-23T13:26:23.332Z,56.41
2018-03-23T13:28:49.926Z,55.97
2018-03-23T13:31:16.951Z,55.99
2018-03-23T13:33:44.128Z,57.62
2018-03-23T13:36:11.156Z,57.59
2018-03-23T13:38:37.594Z,57.18
2018-03-23T13:41:04.024Z,57.00
2018-03-23T13:43:30.916Z,55.65
2018-03-23T13:45:57.968Z,57.07
2018-03-23T13:48:24.576Z,58.75
2018-03-23T13:50:51.208Z,57.40
2018-03-23T13:53:18.117Z,57.08
2018-03-23T13:55:44.525Z,56.83
2018-03-23T13:58:11.374Z,57.81
2018-03-23T14:00:44.052Z,58.68
2018-03-23T14:03:10.750Z,58.84
2018-03-23T14:05:37.432Z,58.55
2018-03-23T14:08:03.872Z,58.07
2018-03-23T14:10:30.876Z,57.53
2018-03-23T14:12:57.534Z,57.78
2018-03-23T14:15:24.005Z,59.24
2018-03-23T14:17:50.914Z,60.34
2018-03-23T14:20:17.633Z,59.92
2018-03-23T14:22:44.165Z,60.10
2018-03-23T14:25:10.743Z,59.52
2018-03-23T14:27:37.473Z,59.12
2018-03-23T14:30:04.182Z,59.89
2018-03-23T14:32:30.618Z,60.79
2018-03-23T14:34:57.094Z,60.63
2018-03-23T14:37:23.802Z,61.88
2018-03-23T14:39:50.660Z,61.28
2018-03-23T14:42:17.673Z,60.48
2018-03-23T14:44:44.530Z,59.81
2018-03-23T14:47:11.359Z,60.17
2018-03-23T14:49:37.942Z,62.00
2018-03-23T14:52:05.010Z,61.57
2018-03-23T14:54:31.728Z,61.64
2018-03-23T14:56:58.506Z,60.91
2018-03-23T14:59:25.314Z,61.04
2018-03-23T15:01:51.800Z,61.94
2018-03-23T15:04:18.380Z,61.16
2018-03-23T15:06:44.904Z,62.05
2018-03-23T15:09:11.938Z,62.77
2018-03-23T15:11:38.843Z,63.64
2018-03-23T15:16:38.201Z,62.78
2018-03-23T15:19:05.141Z,61.78
2018-03-23T15:21:31.647Z,61.51
2018-03-23T15:23:58.322Z,62.16
2018-03-23T15:26:24.992Z,62.56
2018-03-23T15:28:51.678Z,62.85
2018-03-23T15:31:18.373Z,63.67
2018-03-23T15:33:45.170Z,62.08
2018-03-23T15:36:11.977Z,62.17
2018-03-23T15:38:38.889Z,61.19
2018-03-23T15:41:05.934Z,61.80
2018-03-23T15:43:32.634Z,62.35
2018-03-23T15:45:59.250Z,63.34
2018-03-23T15:48:26.981Z,62.79
2018-03-23T15:50:53.797Z,62.00
2018-03-23T15:53:20.567Z,62.05
2018-03-23T15:55:47.270Z,63.48
2018-03-23T15:58:14.903Z,62.50
2018-03-23T16:00:41.783Z,62.10
2018-03-23T16:03:08.397Z,61.81
2018-03-23T16:05:35.222Z,62.23
2018-03-23T16:08:01.832Z,62.23
2018-03-23T16:10:28.768Z,62.78
2018-03-23T16:12:55.681Z,63.36
2018-03-23T16:15:22.400Z,63.71
2018-03-23T16:17:48.896Z,63.29
2018-03-23T16:20:15.894Z,63.24
2018-03-23T16:22:42.697Z,66.92
2018-03-23T16:25:10.895Z,63.70
2018-03-23T16:27:37.859Z,64.33
2018-03-23T16:30:04.657Z,65.88
2018-03-23T16:32:31.272Z,66.07
2018-03-23T16:34:57.914Z,66.34
2018-03-23T16:37:24.879Z,65.81
2018-03-23T16:39:51.798Z,66.04
2018-03-23T16:42:18.781Z,66.65
2018-03-23T16:44:45.602Z,67.66
2018-03-23T16:47:12.138Z,67.21
2018-03-23T16:49:40.444Z,67.01
2018-03-23T16:52:07.270Z,68.35
2018-03-23T16:54:34.824Z,68.33
2018-03-23T16:57:01.815Z,68.12
2018-03-23T16:59:28.582Z,68.54
2018-03-23T17:01:55.470Z,68.81
2018-03-23T17:04:23.798Z,70.99
2018-03-23T17:06:51.089Z,71.64
2018-03-23T17:09:17.878Z,70.20
2018-03-23T17:11:45.143Z,72.48
2018-03-23T17:14:13.519Z,70.98
2018-03-23T17:16:41.209Z,69.72
2018-03-23T17:19:09.364Z,69.79
2018-03-23T17:21:36.170Z,69.25
2018-03-23T17:24:03.430Z,68.85
2018-03-23T17:26:30.299Z,68.99
2018-03-23T17:28:58.870Z,68.98
2018-03-23T17:31:25.927Z,68.90
2018-03-23T17:33:52.853Z,69.47
2018-03-23T17:36:19.588Z,70.26
2018-03-23T17:38:46.058Z,70.34
2018-03-23T17:41:12.709Z,69.18
2018-03-23T17:43:40.051Z,69.93
2018-03-23T17:46:06.963Z,69.05
2018-03-23T17:48:33.670Z,68.83
2018-03-23T17:51:00.461Z,67.98
2018-03-23T17:53:27.048Z,67.52
2018-03-23T17:55:53.799Z,68.66
2018-03-23T17:58:21.596Z,68.39
2018-03-23T18:00:48.571Z,68.62
2018-03-23T18:03:16.892Z,68.84
2018-03-23T18:05:43.990Z,70.49
2018-03-23T18:08:11.447Z,70.64
2018-03-23T18:10:38.764Z,69.71
2018-03-23T18:13:07.884Z,70.39
2018-03-23T18:15:34.768Z,71.45
2018-03-23T18:18:02.673Z,70.60
2018-03-23T18:20:29.766Z,68.59
2018-03-23T18:22:56.551Z,68.13
2018-03-23T18:25:23.504Z,72.63
2018-03-23T18:27:50.405Z,75.22
2018-03-23T18:30:17.168Z,73.47
2018-03-23T18:32:43.956Z,73.31
2018-03-23T18:35:11.484Z,73.41
2018-03-23T18:37:39.892Z,72.44
2018-03-23T18:40:07.420Z,71.83
2018-03-23T18:42:34.470Z,69.98
2018-03-23T18:45:02.482Z,71.42
2018-03-23T18:47:30.434Z,70.17
2018-03-23T18:49:58.369Z,75.71
2018-03-23T18:52:26.421Z,74.10
2018-03-23T18:54:53.462Z,74.81
2018-03-23T18:57:23.690Z,74.77
2018-03-23T18:59:50.661Z,73.88
2018-03-23T19:02:18.082Z,73.81
2018-03-23T19:04:45.109Z,71.54
2018-03-23T19:07:11.507Z,74.00
2018-03-23T19:09:41.250Z,73.86
2018-03-23T19:12:08.228Z,76.35
2018-03-23T19:14:35.121Z,73.38
2018-03-23T19:17:02.598Z,75.71
2018-03-23T19:19:30.071Z,75.72
2018-03-23T19:21:56.718Z,75.40
2018-03-23T19:24:23.434Z,76.08
2018-03-23T19:26:50.093Z,73.50
2018-03-23T19:29:16.690Z,75.64
2018-03-23T19:31:43.200Z,75.38
2018-03-23T19:34:10.199Z,74.35
2018-03-23T19:36:37.188Z,75.14
2018-03-23T19:39:04.042Z,72.97
2018-03-23T19:41:31.042Z,76.34
2018-03-23T19:43:57.546Z,77.67
2018-03-23T19:46:24.061Z,75.98
2018-03-23T19:48:50.585Z,76.23
2018-03-23T19:51:17.741Z,76.57
2018-03-23T19:53:44.863Z,77.09
2018-03-23T19:56:11.650Z,75.01
2018-03-23T19:58:38.353Z,74.45
2018-03-23T20:01:05.739Z,77.29
2018-03-23T20:03:32.607Z,78.15
2018-03-23T20:06:00.405Z,77.44
2018-03-23T20:08:27.390Z,77.12
2018-03-23T20:10:55.125Z,75.33
2018-03-23T20:13:24.765Z,76.92
2018-03-23T20:15:52.070Z,78.45
2018-03-23T20:18:23.023Z,76.79
2018-03-23T20:20:56.411Z,77.29
2018-03-23T20:23:23.514Z,77.35
2018-03-23T20:25:50.605Z,77.57
2018-03-23T20:28:23.284Z,77.21
2018-03-23T20:30:50.110Z,78.98
2018-03-23T20:33:17.231Z,80.58
2018-03-23T20:35:44.013Z,79.09
2018-03-23T20:38:10.510Z,80.03
2018-03-23T20:40:37.099Z,79.23
2018-03-23T20:43:04.085Z,80.04
2018-03-23T20:45:30.651Z,79.60
2018-03-23T20:47:57.511Z,78.71
2018-03-23T20:50:24.189Z,79.64
2018-03-23T20:52:50.830Z,79.63
2018-03-23T20:55:17.611Z,78.76
2018-03-23T20:57:44.574Z,78.88
2018-03-23T21:00:12.006Z,78.47
2018-03-23T21:02:38.966Z,80.14
2018-03-23T21:05:05.710Z,78.49
2018-03-23T21:07:32.244Z,78.42
2018-03-23T21:09:58.999Z,76.31
2018-03-23T21:12:26.138Z,75.67
2018-03-23T21:14:53.378Z,78.19
2018-03-23T21:17:20.946Z,78.66
2018-03-23T21:19:47.927Z,78.67
2018-03-23T21:22:14.642Z,79.32
2018-03-23T21:24:41.117Z,78.94
2018-03-23T21:27:07.844Z,77.78
2018-03-23T21:29:34.393Z,74.97
2018-03-23T21:32:01.233Z,77.10
2018-03-23T21:34:28.058Z,77.46
2018-03-23T21:36:54.888Z,75.49
2018-03-23T21:39:21.398Z,73.59
2018-03-23T21:41:47.932Z,72.88
2018-03-23T21:44:14.454Z,70.78
2018-03-23T21:46:41.643Z,73.46
2018-03-23T21:49:15.692Z,72.93
2018-03-23T21:51:42.749Z,73.14
2018-03-23T21:54:10.186Z,72.59
2018-03-23T21:56:37.145Z,70.52
2018-03-23T21:59:04.058Z,69.97
2018-03-23T22:01:31.213Z,70.05
2018-03-23T22:03:58.231Z,69.67
2018-03-23T22:06:25.226Z,69.81
2018-03-23T22:08:52.261Z,74.37
2018-03-23T22:11:19.282Z,75.29
2018-03-23T22:13:46.409Z,74.91
2018-03-23T22:16:13.524Z,72.98
2018-03-23T22:18:40.415Z,74.59
2018-03-23T22:21:07.087Z,73.09
2018-03-23T22:23:33.687Z,74.42
2018-03-23T22:26:00.540Z,74.76
2018-03-23T22:28:27.386Z,72.75
2018-03-23T22:30:54.009Z,72.88
2018-03-23T22:33:20.747Z,75.22
2018-03-23T22:35:47.271Z,74.85
2018-03-23T22:38:14.386Z,72.38
2018-03-23T22:40:41.270Z,71.07
2018-03-23T22:43:07.875Z,70.44
2018-03-23T22:45:34.268Z,70.14
2018-03-23T22:48:00.775Z,73.22
2018-03-23T22:50:27.262Z,74.37
2018-03-23T22:52:54.163Z,73.70
2018-03-23T22:55:20.926Z,74.07
2018-03-23T22:57:47.814Z,73.70
2018-03-23T23:00:14.663Z,73.43
2018-03-23T23:02:41.264Z,72.60
2018-03-23T23:05:08.169Z,74.21
2018-03-23T23:07:35.081Z,75.11
2018-03-23T23:10:01.576Z,74.49
2018-03-23T23:12:28.192Z,74.82
2018-03-23T23:14:54.877Z,76.28
2018-03-23T23:17:22.127Z,76.47
2018-03-23T23:19:49.382Z,76.92
2018-03-23T23:22:16.261Z,76.29
2018-03-23T23:24:42.901Z,76.76
2018-03-23T23:27:09.986Z,76.97
2018-03-23T23:29:37.233Z,76.17
2018-03-23T23:32:04.013Z,74.14
2018-03-23T23:34:31.121Z,75.57
2018-03-23T23:36:57.698Z,77.04
2018-03-23T23:39:24.602Z,75.40
2018-03-23T23:41:51.411Z,77.46
2018-03-23T23:44:18.339Z,76.48
2018-03-23T23:46:44.891Z,75.11
2018-03-23T23:49:11.425Z,74.61
2018-03-23T23:51:38.005Z,74.06
2018-03-23T23:54:04.598Z,72.39
2018-03-23T23:56:31.198Z,72.77
2018-03-23T23:58:57.926Z,71.70
